Time;durP1;ratioP1;P1;durP2;ratioP2;P2;SDS_P1;SDS_P2;PMS_P1;PMS_P2;Temp;Humidity;BMP_temperature;BMP_pressure;BME280_temperature;BME280_humidity;BME280_pressure;Samples;Min_cycle;Max_cycle;Signal;HPM_P1;HPM_P2
2021/03/08 00:01:43;;;;;;;;;;;;;;;27.90;20.06;101075.69;5116808;28;759;-40
2021/03/08 00:04:09;;;;;;;;;;;;;;;27.72;20.29;101072.28;5116888;28;763;-41
2021/03/08 00:06:34;;;;;;;;;;;;;;;28.01;19.94;101077.97;5118718;28;842;-40
2021/03/08 00:08:59;;;;;;;;;;;;;;;27.78;20.29;101072.59;5121175;28;747;-39
2021/03/08 00:11:24;;;;;;;;;;;;;;;27.59;20.56;101075.50;5120340;28;1918;-39
2021/03/08 00:13:50;;;;;;;;;;;;;;;27.79;19.96;101080.50;5121003;28;814;-40
2021/03/08 00:16:15;;;;;;;;;;;;;;;27.93;19.91;101076.16;5121153;28;819;-39
2021/03/08 00:18:40;;;;;;;;;;;;;;;27.99;20.10;101071.91;5120634;28;747;-35
2021/03/08 00:21:06;;;;;;;;;;;;;;;27.97;19.93;101071.25;5121109;28;854;-31
2021/03/08 00:23:31;;;;;;;;;;;;;;;28.02;20.05;101059.88;5120369;28;806;-36
2021/03/08 00:25:56;;;;;;;;;;;;;;;27.75;20.18;101060.25;5120584;28;950;-32
2021/03/08 00:28:21;;;;;;;;;;;;;;;27.55;20.62;101057.97;5120518;28;843;-31
2021/03/08 00:30:47;;;;;;;;;;;;;;;28.03;20.09;101056.16;5120560;28;845;-41
2021/03/08 00:33:12;;;;;;;;;;;;;;;27.85;20.17;101054.59;5120162;28;1961;-35
2021/03/08 00:35:37;;;;;;;;;;;;;;;28.04;20.00;101044.31;5120705;28;783;-31
2021/03/08 00:40:46;;;;;;;;;;;;;;;28.12;19.71;101049.66;5119818;28;930;-34
2021/03/08 00:43:12;;;;;;;;;;;;;;;27.65;20.11;101038.84;5120458;28;1091;-31
2021/03/08 00:45:37;;;;;;;;;;;;;;;27.90;20.38;101040.53;5120298;28;764;-33
2021/03/08 00:48:02;;;;;;;;;;;;;;;28.16;19.85;101036.63;5120200;28;791;-33
2021/03/08 00:50:28;;;;;;;;;;;;;;;28.02;19.91;101030.97;5120666;28;819;-36
2021/03/08 00:52:53;;;;;;;;;;;;;;;27.85;20.16;101020.31;5120201;28;1909;-34
2021/03/08 00:55:19;;;;;;;;;;;;;;;27.89;20.00;101019.94;5120009;28;747;-34
2021/03/08 00:57:44;;;;;;;;;;;;;;;27.90;20.09;101008.09;5120302;28;992;-33
2021/03/08 01:00:10;;;;;;;;;;;;;;;27.90;19.92;101008.09;5120022;28;814;-34
2021/03/08 01:02:36;;;;;;;;;;;;;;;27.60;20.47;101003.41;5119476;28;866;-41
2021/03/08 01:05:01;;;;;;;;;;;;;;;27.43;20.86;100997.25;5119967;28;850;-32
2021/03/08 01:10:29;;;;;;;;;;;;;;;28.20;19.61;100990.06;5119414;28;633;-33
2021/03/08 01:12:55;;;;;;;;;;;;;;;27.85;20.10;100981.59;5119539;28;1902;-32
2021/03/08 01:15:20;;;;;;;;;;;;;;;28.03;20.13;100986.69;5119917;28;772;-32
2021/03/08 01:17:45;;;;;;;;;;;;;;;28.04;19.71;100974.00;5119055;28;807;-31
2021/03/08 01:20:12;;;;;;;;;;;;;;;27.74;20.21;100974.78;5119910;28;783;-38
2021/03/08 01:22:37;;;;;;;;;;;;;;;27.78;20.10;100975.28;5120006;28;751;-33
2021/03/08 01:25:07;;;;;;;;;;;;;;;28.07;20.06;100968.22;5119147;28;878;-32
2021/03/08 01:27:32;;;;;;;;;;;;;;;28.03;20.09;100967.75;5119670;28;934;-35
2021/03/08 01:29:58;;;;;;;;;;;;;;;27.86;20.24;100962.50;5119404;28;859;-34
2021/03/08 01:32:23;;;;;;;;;;;;;;;28.09;19.99;100958.91;5119213;28;1863;-34
2021/03/08 01:34:48;;;;;;;;;;;;;;;27.99;20.09;100961.88;5119403;28;795;-35
2021/03/08 01:40:16;;;;;;;;;;;;;;;27.71;20.12;100953.53;5118707;28;596;-41
2021/03/08 01:42:42;;;;;;;;;;;;;;;27.66;20.60;100945.91;5118566;28;1198;-35
2021/03/08 01:45:08;;;;;;;;;;;;;;;28.09;20.12;100952.66;5119435;28;837;-37
2021/03/08 01:47:33;;;;;;;;;;;;;;;27.98;19.96;100962.91;5119186;28;747;-40
2021/03/08 01:49:59;;;;;;;;;;;;;;;28.06;20.14;100961.16;5119532;28;783;-37
2021/03/08 01:52:24;;;;;;;;;;;;;;;27.95;20.04;100960.56;5119069;28;1909;-41
2021/03/08 01:54:49;;;;;;;;;;;;;;;28.24;19.98;100955.38;5118519;28;845;-37
2021/03/08 01:57:15;;;;;;;;;;;;;;;28.29;20.05;100955.66;5117531;28;1025;-36
2021/03/08 01:59:40;;;;;;;;;;;;;;;28.19;20.03;100957.81;5118030;28;822;-40
2021/03/08 02:02:05;;;;;;;;;;;;;;;28.31;19.87;100950.91;5118566;28;806;-39
2021/03/08 02:04:31;;;;;;;;;;;;;;;28.30;19.67;100959.19;5118625;28;843;-39
2021/03/08 02:06:56;;;;;;;;;;;;;;;28.28;19.51;100955.84;5118910;28;772;-37
2021/03/08 02:09:21;;;;;;;;;;;;;;;27.83;20.05;100948.50;5118294;28;721;-38
2021/03/08 02:11:50;;;;;;;;;;;;;;;27.63;20.48;100948.97;5118125;28;1906;-40
2021/03/08 02:14:21;;;;;;;;;;;;;;;27.51;20.59;100940.47;5117625;28;800;-37
2021/03/08 02:16:54;;;;;;;;;;;;;;;27.71;20.46;100938.13;5118173;28;827;-37
2021/03/08 02:19:19;;;;;;;;;;;;;;;27.58;20.44;100935.19;5117428;28;812;-36
2021/03/08 02:21:57;;;;;;;;;;;;;;;27.57;20.41;100933.50;5118442;28;771;-40
2021/03/08 02:24:40;;;;;;;;;;;;;;;27.54;20.43;100933.88;5118116;28;783;-35
2021/03/08 02:27:08;;;;;;;;;;;;;;;27.60;20.39;100928.59;5118142;28;992;-40
2021/03/08 02:29:48;;;;;;;;;;;;;;;27.87;20.14;100922.78;5117490;28;755;-40
2021/03/08 02:32:14;;;;;;;;;;;;;;;27.78;20.22;100923.91;5118193;28;1901;-40
2021/03/08 02:34:50;;;;;;;;;;;;;;;27.84;20.15;100924.00;5117494;28;792;-37
2021/03/08 02:37:20;;;;;;;;;;;;;;;27.65;20.39;100917.22;5117453;28;810;-40
2021/03/08 02:39:47;;;;;;;;;;;;;;;27.21;21.04;100910.66;5117024;28;933;-39
2021/03/08 02:42:16;;;;;;;;;;;;;;;27.31;20.68;100910.41;5117952;28;1301;-41
2021/03/08 02:44:41;;;;;;;;;;;;;;;27.42;20.57;100911.84;5116442;28;890;-39
2021/03/08 02:47:06;;;;;;;;;;;;;;;27.24;20.89;100903.00;5118107;28;779;-34
2021/03/08 02:49:32;;;;;;;;;;;;;;;26.61;21.56;100911.16;5116668;28;831;-39
2021/03/08 02:51:58;;;;;;;;;;;;;;;26.82;21.39;100912.38;5116121;28;1964;-33
2021/03/08 02:54:23;;;;;;;;;;;;;;;26.37;22.09;100907.53;5116825;28;1465;-37
2021/03/08 02:56:48;;;;;;;;;;;;;;;26.59;21.67;100911.28;5116256;28;1523;-36
2021/03/08 02:59:14;;;;;;;;;;;;;;;26.66;21.65;100906.03;5116481;28;735;-37
2021/03/08 03:01:39;;;;;;;;;;;;;;;26.67;21.82;100910.44;5116594;28;742;-38
2021/03/08 03:04:05;;;;;;;;;;;;;;;27.66;20.21;100915.38;5117746;28;774;-36
2021/03/08 03:06:30;;;;;;;;;;;;;;;27.89;20.28;100909.94;5116644;28;822;-37
2021/03/08 03:08:56;;;;;;;;;;;;;;;27.97;20.36;100914.41;5116203;28;759;-39
2021/03/08 03:11:21;;;;;;;;;;;;;;;27.82;20.27;100917.09;5117084;28;1906;-38
2021/03/08 03:13:46;;;;;;;;;;;;;;;27.67;20.48;100912.47;5116268;28;830;-37
2021/03/08 03:16:12;;;;;;;;;;;;;;;27.51;20.49;100913.44;5116396;28;767;-37
2021/03/08 03:18:37;;;;;;;;;;;;;;;27.04;21.10;100915.31;5116690;28;747;-37
2021/03/08 03:21:03;;;;;;;;;;;;;;;26.77;21.40;100921.00;5115999;28;823;-37
2021/03/08 03:23:28;;;;;;;;;;;;;;;26.43;22.04;100911.34;5117234;28;739;-38
2021/03/08 03:25:54;;;;;;;;;;;;;;;27.97;20.29;100914.41;5117095;28;1009;-40
2021/03/08 03:28:19;;;;;;;;;;;;;;;28.47;19.36;100913.88;5117573;28;775;-35
2021/03/08 03:30:44;;;;;;;;;;;;;;;28.55;19.23;100918.34;5115907;28;1331;-38
2021/03/08 03:33:09;;;;;;;;;;;;;;;27.51;20.62;100916.16;5115592;28;1958;-36
2021/03/08 03:35:35;;;;;;;;;;;;;;;27.68;20.47;100916.88;5116448;28;747;-40
2021/03/08 03:40:47;;;;;;;;;;;;;;;27.97;19.89;100900.91;5115288;28;969;-38
2021/03/08 03:43:13;;;;;;;;;;;;;;;28.03;20.01;100907.44;5117004;28;1150;-34
2021/03/08 03:45:38;;;;;;;;;;;;;;;27.92;20.28;100901.47;5117237;28;794;-41
2021/03/08 03:48:03;;;;;;;;;;;;;;;27.82;20.11;100907.13;5117023;28;805;-39
2021/03/08 03:50:29;;;;;;;;;;;;;;;28.14;20.16;100906.13;5117548;28;752;-38
2021/03/08 03:52:54;;;;;;;;;;;;;;;28.10;19.98;100900.25;5116783;28;1914;-38
2021/03/08 03:55:19;;;;;;;;;;;;;;;27.93;19.86;100896.88;5116943;28;771;-38
2021/03/08 03:58:02;;;;;;;;;;;;;;;27.94;20.21;100902.13;5116763;28;929;-36
2021/03/08 04:00:28;;;;;;;;;;;;;;;27.69;20.61;100905.06;5115546;28;751;-38
2021/03/08 04:02:56;;;;;;;;;;;;;;;26.98;21.27;100906.03;5116045;28;752;-38
2021/03/08 04:05:23;;;;;;;;;;;;;;;26.51;21.96;100906.78;5117034;28;817;-37
2021/03/08 04:08:07;;;;;;;;;;;;;;;26.40;22.13;100907.16;5115516;28;862;-36
2021/03/08 04:10:32;;;;;;;;;;;;;;;28.24;19.81;100912.09;5116498;28;858;-39
2021/03/08 04:13:04;;;;;;;;;;;;;;;28.70;19.41;100905.63;5116234;28;1965;-39
2021/03/08 04:15:29;;;;;;;;;;;;;;;28.71;19.12;100909.19;5115399;28;787;-35
2021/03/08 04:17:55;;;;;;;;;;;;;;;28.76;19.50;100906.72;5116906;28;791;-40
2021/03/08 04:20:20;;;;;;;;;;;;;;;28.94;19.31;100913.59;5115840;28;827;-39
2021/03/08 04:22:51;;;;;;;;;;;;;;;29.11;18.64;100905.28;5116796;28;843;-38
2021/03/08 04:25:17;;;;;;;;;;;;;;;29.14;18.82;100908.44;5115533;28;767;-40
2021/03/08 04:27:42;;;;;;;;;;;;;;;29.29;18.66;100905.66;5116861;28;962;-39
2021/03/08 04:30:08;;;;;;;;;;;;;;;29.35;18.66;100901.31;5116460;28;763;-39
2021/03/08 04:32:33;;;;;;;;;;;;;;;29.35;18.53;100909.44;5116515;28;1964;-39
2021/03/08 04:34:59;;;;;;;;;;;;;;;26.82;14.43;100901.59;5116848;28;717;-40
2021/03/08 04:37:24;;;;;;;;;;;;;;;24.73;15.53;100893.66;5116000;28;787;-35
2021/03/08 04:39:51;;;;;;;;;;;;;;;23.86;16.11;100890.00;5116919;28;798;-35
2021/03/08 04:42:16;;;;;;;;;;;;;;;22.67;15.56;100879.34;5116346;28;1127;-33
2021/03/08 04:44:43;;;;;;;;;;;;;;;22.67;15.62;100879.34;5114744;28;830;-39
2021/03/08 04:47:08;;;;;;;;;;;;;;;21.99;15.62;100882.09;5115575;28;770;-37
2021/03/08 04:49:33;;;;;;;;;;;;;;;21.74;16.06;100885.22;5116845;28;810;-41
2021/03/08 04:51:58;;;;;;;;;;;;;;;22.06;15.41;100880.53;5116960;28;1975;-38
2021/03/08 04:54:24;;;;;;;;;;;;;;;22.14;15.29;100886.00;5118212;27;1459;-34
2021/03/08 04:56:49;;;;;;;;;;;;;;;21.85;15.96;100888.78;5126657;27;1014;-34
2021/03/08 04:59:14;;;;;;;;;;;;;;;23.08;16.55;100881.59;5124998;27;892;-41
2021/03/08 05:01:40;;;;;;;;;;;;;;;24.69;16.69;100886.94;5132694;27;845;-32
2021/03/08 05:04:09;;;;;;;;;;;;;;;25.05;16.69;100894.78;5118775;28;870;-41
2021/03/08 05:06:38;;;;;;;;;;;;;;;25.47;16.17;100886.75;5120062;28;727;-40
2021/03/08 05:09:15;;;;;;;;;;;;;;;25.72;16.12;100888.59;5119858;28;850;-39
2021/03/08 05:11:42;;;;;;;;;;;;;;;26.02;16.28;100891.59;5118574;28;1905;-39
2021/03/08 05:14:10;;;;;;;;;;;;;;;26.05;16.45;100896.63;5118642;28;832;-41
2021/03/08 05:16:37;;;;;;;;;;;;;;;26.42;16.44;100894.34;5119827;28;836;-41
2021/03/08 05:19:03;;;;;;;;;;;;;;;26.63;16.31;100901.00;5117614;28;955;-38
2021/03/08 05:21:28;;;;;;;;;;;;;;;26.86;15.94;100902.91;5118266;28;814;-34
2021/03/08 05:23:55;;;;;;;;;;;;;;;26.84;15.59;100899.56;5118226;28;974;-42
2021/03/08 05:26:20;;;;;;;;;;;;;;;26.97;15.51;100905.22;5117983;28;958;-42
2021/03/08 05:28:45;;;;;;;;;;;;;;;27.11;15.42;100905.50;5119421;28;783;-35
2021/03/08 05:31:11;;;;;;;;;;;;;;;27.07;15.60;100905.00;5119988;28;839;-36
2021/03/08 05:33:38;;;;;;;;;;;;;;;27.19;15.43;100904.59;5112393;28;1897;-41
2021/03/08 05:36:03;;;;;;;;;;;;;;;27.46;15.33;100907.78;5104464;28;937;-42
2021/03/08 05:38:47;;;;;;;;;;;;;;;27.55;16.24;100912.06;5098976;28;827;-36
2021/03/08 05:41:16;;;;;;;;;;;;;;;27.67;16.85;100911.63;5103910;28;969;-39
2021/03/08 05:43:43;;;;;;;;;;;;;;;27.77;17.07;100900.59;5118950;28;1145;-37
2021/03/08 05:46:10;;;;;;;;;;;;;;;27.91;16.85;100907.88;5117911;28;1045;-44
2021/03/08 05:48:41;;;;;;;;;;;;;;;27.21;17.56;100897.97;5115920;28;865;-36
2021/03/08 05:51:06;;;;;;;;;;;;;;;26.43;18.73;100901.41;5118634;28;779;-45
2021/03/08 05:53:38;;;;;;;;;;;;;;;27.29;18.19;100907.91;5118964;28;1910;-39
2021/03/08 05:56:08;;;;;;;;;;;;;;;26.53;18.90;100907.47;5122531;27;954;-35
2021/03/08 05:58:33;;;;;;;;;;;;;;;26.98;18.84;100904.19;5138017;27;779;-34
2021/03/08 06:01:17;;;;;;;;;;;;;;;27.40;18.47;100898.53;5139348;27;782;-28
2021/03/08 06:04:01;;;;;;;;;;;;;;;27.51;18.63;100903.50;5139231;27;757;-36
2021/03/08 06:06:38;;;;;;;;;;;;;;;27.37;18.46;100904.28;5138723;27;803;-39
2021/03/08 06:09:17;;;;;;;;;;;;;;;27.65;18.48;100905.56;5139459;27;748;-34
2021/03/08 06:11:43;;;;;;;;;;;;;;;27.97;18.02;100903.59;5138675;27;1976;-39
2021/03/08 06:14:08;;;;;;;;;;;;;;;27.94;18.37;100907.53;5137754;27;759;-43
2021/03/08 06:16:34;;;;;;;;;;;;;;;28.14;18.18;100909.69;5136939;27;849;-38
2021/03/08 06:19:00;;;;;;;;;;;;;;;28.06;18.45;100916.00;5119336;27;1223;-35
2021/03/08 06:21:25;;;;;;;;;;;;;;;28.10;18.46;100919.19;5113666;28;859;-42
2021/03/08 06:23:50;;;;;;;;;;;;;;;27.81;18.75;100915.44;5117779;28;870;-42
2021/03/08 06:26:16;;;;;;;;;;;;;;;28.45;18.54;100913.22;5122410;27;939;-34
2021/03/08 06:28:41;;;;;;;;;;;;;;;28.60;18.32;100910.50;5138430;27;779;-33
2021/03/08 06:31:07;;;;;;;;;;;;;;;25.65;15.58;100910.00;5131910;27;822;-35
2021/03/08 06:33:33;;;;;;;;;;;;;;;24.88;15.44;100906.47;5118109;28;2008;-37
2021/03/08 06:36:00;;;;;;;;;;;;;;;24.04;17.99;100908.75;5117801;28;793;-38
2021/03/08 06:38:37;;;;;;;;;;;;;;;24.18;17.03;100911.91;5117938;28;771;-38
2021/03/08 06:41:02;;;;;;;;;;;;;;;24.02;16.98;100896.50;5121617;27;922;-35
2021/03/08 06:43:28;;;;;;;;;;;;;;;24.34;16.52;100897.69;5137635;27;1313;-37
2021/03/08 06:45:56;;;;;;;;;;;;;;;24.42;16.41;100899.59;5138627;27;783;-37
2021/03/08 06:48:21;;;;;;;;;;;;;;;24.37;16.17;100892.03;5138585;27;810;-39
2021/03/08 06:50:47;;;;;;;;;;;;;;;24.43;15.79;100888.69;5137841;27;818;-37
2021/03/08 06:53:27;;;;;;;;;;;;;;;24.42;15.83;100888.84;5138269;27;1988;-35
2021/03/08 06:55:54;;;;;;;;;;;;;;;24.33;15.93;100894.19;5137751;27;1067;-37
2021/03/08 06:58:20;;;;;;;;;;;;;;;24.45;15.52;100893.88;5136303;27;1301;-40
2021/03/08 07:00:45;;;;;;;;;;;;;;;24.41;16.54;100885.28;5138167;27;822;-37
2021/03/08 07:03:29;;;;;;;;;;;;;;;25.90;17.13;100889.25;5138170;27;838;-42
2021/03/08 07:05:54;;;;;;;;;;;;;;;26.59;17.75;100880.78;5137737;27;775;-36
2021/03/08 07:08:45;;;;;;;;;;;;;;;27.25;17.25;100877.72;5137003;27;782;-35
2021/03/08 07:11:13;;;;;;;;;;;;;;;27.69;16.92;100879.91;5130356;27;1355;-38
2021/03/08 07:13:39;;;;;;;;;;;;;;;27.71;17.03;100884.09;5126369;27;1902;-42
2021/03/08 07:16:04;;;;;;;;;;;;;;;27.51;17.80;100887.28;5116915;28;779;-37
2021/03/08 07:18:30;;;;;;;;;;;;;;;28.19;17.06;100885.63;5115774;28;822;-37
2021/03/08 07:21:07;;;;;;;;;;;;;;;28.18;16.94;100883.94;5117029;28;827;-36
2021/03/08 07:23:32;;;;;;;;;;;;;;;28.14;16.65;100879.94;5122994;27;1553;-37
2021/03/08 07:26:04;;;;;;;;;;;;;;;27.74;17.45;100880.19;5117729;27;939;-36
2021/03/08 07:28:30;;;;;;;;;;;;;;;28.72;17.02;100876.53;5127715;27;881;-36
2021/03/08 07:30:55;;;;;;;;;;;;;;;28.69;16.21;100873.34;5117222;28;750;-37
2021/03/08 07:33:20;;;;;;;;;;;;;;;28.17;15.46;100878.72;5116729;28;1968;-35
2021/03/08 07:35:46;;;;;;;;;;;;;;;28.41;16.03;100876.78;5116767;28;823;-35
2021/03/08 07:38:16;;;;;;;;;;;;;;;27.98;15.72;100870.13;5134298;27;763;-38
2021/03/08 07:40:43;;;;;;;;;;;;;;;28.45;15.74;100870.78;5135760;27;918;-36
2021/03/08 07:43:18;;;;;;;;;;;;;;;28.50;15.90;100870.22;5116369;28;1162;-41
2021/03/08 07:45:44;;;;;;;;;;;;;;;28.82;15.37;100870.78;5115816;28;834;-33
2021/03/08 07:48:19;;;;;;;;;;;;;;;29.13;15.28;100865.28;5116930;28;775;-41
2021/03/08 07:50:45;;;;;;;;;;;;;;;28.97;15.44;100864.50;5116905;28;847;-35
2021/03/08 07:53:23;;;;;;;;;;;;;;;29.04;15.53;100872.69;5116933;28;1972;-32
2021/03/08 07:55:49;;;;;;;;;;;;;;;29.27;15.25;100874.38;5115709;28;894;-37
2021/03/08 07:58:14;;;;;;;;;;;;;;;29.39;14.85;100872.81;5110740;28;1164;-40
2021/03/08 08:00:39;;;;;;;;;;;;;;;28.74;15.54;100870.91;5116733;28;814;-39
2021/03/08 08:03:04;;;;;;;;;;;;;;;28.60;15.88;100864.50;5130729;28;1483;-37
2021/03/08 08:05:30;;;;;;;;;;;;;;;29.14;15.28;100869.66;5137332;28;699;-41
2021/03/08 08:07:55;;;;;;;;;;;;;;;29.57;14.76;100866.91;5136931;28;858;-37
2021/03/08 08:10:20;;;;;;;;;;;;;;;29.08;13.91;100868.56;5124216;28;966;-35
2021/03/08 08:12:46;;;;;;;;;;;;;;;27.67;13.95;100863.84;5115506;28;1963;-32
2021/03/08 08:15:11;;;;;;;;;;;;;;;28.40;14.22;100865.09;5116627;28;826;-39
2021/03/08 08:17:37;;;;;;;;;;;;;;;28.35;14.08;100865.66;5115056;28;771;-36
2021/03/08 08:20:03;;;;;;;;;;;;;;;28.40;13.86;100856.97;5131395;28;826;-37
2021/03/08 08:22:28;;;;;;;;;;;;;;;27.37;16.02;100856.50;5118545;28;1184;-40
2021/03/08 08:24:54;;;;;;;;;;;;;;;27.56;15.59;100859.69;5115013;28;878;-37
2021/03/08 08:27:20;;;;;;;;;;;;;;;28.54;14.45;100858.00;5115083;28;954;-38
2021/03/08 08:29:46;;;;;;;;;;;;;;;28.82;14.10;100861.81;5111583;28;775;-32
2021/03/08 08:32:11;;;;;;;;;;;;;;;29.01;13.69;100860.38;5120293;27;1905;-40
2021/03/08 08:34:38;;;;;;;;;;;;;;;29.17;13.29;100851.16;5140459;27;830;-38
2021/03/08 08:37:24;;;;;;;;;;;;;;;29.17;12.94;100840.31;5130017;27;1130;-42
2021/03/08 08:39:52;;;;;;;;;;;;;;;29.17;12.96;100842.19;5119058;28;1797;-41
2021/03/08 08:42:18;;;;;;;;;;;;;;;29.19;13.06;100834.72;5121948;27;1100;-37
2021/03/08 08:44:44;;;;;;;;;;;;;;;29.26;14.04;100829.34;5119599;28;763;-40
2021/03/08 08:47:17;;;;;;;;;;;;;;;29.33;13.87;100828.34;5120017;28;810;-33
2021/03/08 08:49:47;;;;;;;;;;;;;;;29.42;13.88;100829.06;5120236;28;767;-40
2021/03/08 08:52:12;;;;;;;;;;;;;;;29.54;14.14;100817.69;5119418;28;1913;-35
2021/03/08 08:54:37;;;;;;;;;;;;;;;29.66;14.03;100824.22;5118415;28;771;-38
2021/03/08 08:57:03;;;;;;;;;;;;;;;29.79;13.92;100823.50;5132148;27;1001;-35
2021/03/08 08:59:30;;;;;;;;;;;;;;;29.87;13.97;100816.22;5129604;27;1003;-42
2021/03/08 09:02:19;;;;;;;;;;;;;;;29.87;14.22;100811.66;5119408;28;799;-39
2021/03/08 09:04:45;;;;;;;;;;;;;;;29.97;14.55;100813.16;5119096;28;828;-40
2021/03/08 09:07:26;;;;;;;;;;;;;;;30.08;14.05;100807.13;5119372;28;719;-42
2021/03/08 09:09:56;;;;;;;;;;;;;;;30.07;14.01;100810.91;5119069;28;771;-36
2021/03/08 09:12:27;;;;;;;;;;;;;;;30.09;14.27;100800.69;5119399;27;1905;-38
2021/03/08 09:14:53;;;;;;;;;;;;;;;29.91;14.17;100806.66;5132793;27;1515;-35
2021/03/08 09:17:19;;;;;;;;;;;;;;;29.28;12.92;100790.19;5130392;27;1619;-37
2021/03/08 09:19:46;;;;;;;;;;;;;;;28.77;14.58;100793.88;5124677;27;1053;-35
2021/03/08 09:22:20;;;;;;;;;;;;;;;29.41;14.50;100792.13;5118107;28;771;-36
2021/03/08 09:24:46;;;;;;;;;;;;;;;29.67;14.16;100792.56;5118448;28;827;-36
2021/03/08 09:27:19;;;;;;;;;;;;;;;29.87;14.09;100795.38;5118613;28;1000;-39
2021/03/08 09:29:44;;;;;;;;;;;;;;;29.51;14.49;100789.06;5119121;28;771;-40
2021/03/08 09:32:10;;;;;;;;;;;;;;;29.23;15.14;100791.81;5117850;28;1901;-36
2021/03/08 09:34:35;;;;;;;;;;;;;;;28.89;15.62;100788.78;5111504;28;1129;-42
2021/03/08 09:37:01;;;;;;;;;;;;;;;27.85;16.34;100776.16;5119009;28;834;-42
2021/03/08 09:39:26;;;;;;;;;;;;;;;27.88;16.53;100778.47;5117355;28;834;-34
2021/03/08 09:41:52;;;;;;;;;;;;;;;27.99;16.54;100767.19;5115735;28;931;-42
2021/03/08 09:44:17;;;;;;;;;;;;;;;27.77;17.33;100763.59;5114588;27;1335;-42
2021/03/08 09:47:02;;;;;;;;;;;;;;;27.56;17.38;100769.72;5134278;27;830;-41
2021/03/08 09:49:44;;;;;;;;;;;;;;;27.66;17.29;100772.97;5129022;27;1619;-35
2021/03/08 09:52:10;;;;;;;;;;;;;;;27.21;18.01;100768.34;5138519;27;1972;-40
2021/03/08 09:54:44;;;;;;;;;;;;;;;27.04;17.60;100773.09;5118702;27;1031;-34
2021/03/08 09:57:09;;;;;;;;;;;;;;;26.91;16.92;100768.25;5131825;27;981;-40
2021/03/08 09:59:53;;;;;;;;;;;;;;;26.74;16.68;100771.06;5139063;27;792;-32
2021/03/08 10:02:19;;;;;;;;;;;;;;;26.66;16.32;100771.13;5138465;27;798;-39
2021/03/08 10:04:51;;;;;;;;;;;;;;;26.69;15.79;100762.69;5138931;27;736;-37
2021/03/08 10:07:17;;;;;;;;;;;;;;;26.86;14.77;100760.69;5124107;27;1541;-35
2021/03/08 10:10:07;;;;;;;;;;;;;;;26.70;15.92;100760.81;5116962;28;862;-39
2021/03/08 10:12:32;;;;;;;;;;;;;;;26.70;16.68;100761.66;5118228;27;1902;-39
2021/03/08 10:14:58;;;;;;;;;;;;;;;26.58;16.40;100757.69;5131513;27;1561;-37
2021/03/08 10:17:24;;;;;;;;;;;;;;;26.55;16.82;100752.66;5117616;28;884;-38
2021/03/08 10:19:55;;;;;;;;;;;;;;;26.51;15.14;100750.31;5116499;28;875;-39
2021/03/08 10:22:52;;;;;;;;;;;;;;;26.17;16.26;100746.94;5117357;28;1365;-37
2021/03/08 10:25:30;;;;;;;;;;;;;;;26.24;15.24;100736.28;5113245;28;1239;-39
2021/03/08 10:27:55;;;;;;;;;;;;;;;26.64;16.00;100727.31;5117907;28;950;-33
2021/03/08 10:30:21;;;;;;;;;;;;;;;23.42;14.52;100725.22;5117966;28;821;-39
2021/03/08 10:32:46;;;;;;;;;;;;;;;23.89;13.93;100733.84;5117137;28;1969;-42
2021/03/08 10:35:12;;;;;;;;;;;;;;;24.17;23.60;100725.59;5133530;27;1628;-40
2021/03/08 10:37:38;;;;;;;;;;;;;;;23.16;17.50;100719.81;5118605;27;1422;-39
2021/03/08 10:40:04;;;;;;;;;;;;;;;23.60;15.43;100729.72;5128038;27;1454;-39
2021/03/08 10:42:29;;;;;;;;;;;;;;;23.40;14.55;100719.19;5118382;27;1456;-38
2021/03/08 10:44:54;;;;;;;;;;;;;;;23.16;15.20;100711.78;5117439;28;1439;-39
2021/03/08 10:47:19;;;;;;;;;;;;;;;22.77;16.19;100710.31;5114000;27;1416;-39
2021/03/08 10:49:48;;;;;;;;;;;;;;;21.80;15.27;100708.94;5125162;27;1336;-39
2021/03/08 10:52:14;;;;;;;;;;;;;;;20.35;16.26;100704.31;5129093;27;1921;-39
2021/03/08 10:54:39;;;;;;;;;;;;;;;21.45;16.02;100679.19;5117311;27;841;-42
2021/03/08 10:57:04;;;;;;;;;;;;;;;23.57;15.08;100673.66;5117406;28;961;-37
2021/03/08 10:59:30;;;;;;;;;;;;;;;24.16;16.12;100680.03;5117509;28;786;-37
2021/03/08 11:02:02;;;;;;;;;;;;;;;24.65;16.64;100670.38;5117461;28;780;-37
2021/03/08 11:04:27;;;;;;;;;;;;;;;24.90;16.47;100664.97;5117734;28;805;-41
2021/03/08 11:06:55;;;;;;;;;;;;;;;25.07;15.96;100657.75;5117316;28;770;-38
2021/03/08 11:12:20;;;;;;;;;;;;;;;25.06;15.14;100656.91;5116671;28;1901;-40
2021/03/08 11:14:49;;;;;;;;;;;;;;;25.23;15.44;100653.34;5116825;28;886;-37
2021/03/08 11:17:15;;;;;;;;;;;;;;;25.18;14.72;100640.41;5117144;28;796;-38
2021/03/08 11:19:40;;;;;;;;;;;;;;;25.18;15.30;100638.56;5116885;28;799;-41
2021/03/08 11:22:09;;;;;;;;;;;;;;;25.30;16.69;100630.09;5117075;28;775;-39
2021/03/08 11:24:40;;;;;;;;;;;;;;;25.31;17.80;100640.69;5116958;28;806;-36
2021/03/08 11:27:06;;;;;;;;;;;;;;;25.52;16.79;100636.59;5115543;28;1120;-39
2021/03/08 11:29:31;;;;;;;;;;;;;;;25.53;16.89;100638.25;5116574;28;1532;-37
2021/03/08 11:31:57;;;;;;;;;;;;;;;25.34;17.61;100636.00;5117059;28;1913;-40
2021/03/08 11:34:38;;;;;;;;;;;;;;;25.48;16.85;100624.47;5112015;28;1236;-40
2021/03/08 11:37:10;;;;;;;;;;;;;;;25.58;17.54;100626.09;5116806;28;851;-41
2021/03/08 11:39:39;;;;;;;;;;;;;;;25.74;17.33;100617.97;5116462;28;824;-40
2021/03/08 11:42:04;;;;;;;;;;;;;;;25.80;17.17;100606.50;5116118;28;914;-40
2021/03/08 11:44:29;;;;;;;;;;;;;;;25.75;17.34;100602.66;5115254;28;1197;-41
2021/03/08 11:46:55;;;;;;;;;;;;;;;25.85;17.08;100599.72;5110745;28;1201;-42
2021/03/08 11:49:20;;;;;;;;;;;;;;;25.94;17.10;100601.38;5113680;28;800;-40
2021/03/08 11:51:45;;;;;;;;;;;;;;;26.49;16.52;100595.91;5116878;28;1923;-39
2021/03/08 11:54:11;;;;;;;;;;;;;;;27.05;16.13;100595.72;5115942;28;844;-38
2021/03/08 11:56:36;;;;;;;;;;;;;;;27.24;16.12;100594.31;5116067;28;910;-42
2021/03/08 11:59:01;;;;;;;;;;;;;;;27.44;16.12;100591.88;5116805;28;814;-43
2021/03/08 12:01:26;;;;;;;;;;;;;;;27.63;15.75;100582.31;5117485;28;815;-36
2021/03/08 12:03:52;;;;;;;;;;;;;;;27.82;16.02;100582.78;5121092;27;1470;-43
2021/03/08 12:06:17;;;;;;;;;;;;;;;28.02;15.71;100592.09;5125300;27;1189;-43
2021/03/08 12:08:42;;;;;;;;;;;;;;;28.15;15.34;100580.56;5128379;27;1521;-43
2021/03/08 12:11:08;;;;;;;;;;;;;;;28.20;15.15;100578.13;5127115;27;1469;-39
2021/03/08 12:13:33;;;;;;;;;;;;;;;28.35;14.91;100576.22;5121138;27;2029;-43
2021/03/08 12:15:58;;;;;;;;;;;;;;;28.38;14.88;100580.38;5123644;27;759;-36
2021/03/08 12:18:23;;;;;;;;;;;;;;;28.48;14.42;100577.31;5130895;27;894;-40
2021/03/08 12:20:49;;;;;;;;;;;;;;;28.35;14.56;100580.78;5140611;27;798;-46
2021/03/08 12:23:15;;;;;;;;;;;;;;;28.56;14.48;100579.88;5140572;27;787;-37
2021/03/08 12:25:40;;;;;;;;;;;;;;;28.57;14.47;100584.28;5139799;27;937;-42
2021/03/08 12:28:05;;;;;;;;;;;;;;;27.69;12.41;100575.38;5120234;28;816;-34
2021/03/08 12:30:31;;;;;;;;;;;;;;;26.90;12.88;100559.59;5120025;27;1295;-40
2021/03/08 12:32:56;;;;;;;;;;;;;;;26.99;14.28;100570.28;5132687;27;1963;-39
2021/03/08 12:35:21;;;;;;;;;;;;;;;26.88;13.37;100552.69;5137492;27;869;-38
2021/03/08 12:37:46;;;;;;;;;;;;;;;26.35;13.11;100564.34;5119642;28;759;-36
2021/03/08 12:40:30;;;;;;;;;;;;;;;26.09;12.46;100555.59;5120022;28;837;-35
2021/03/08 12:42:55;;;;;;;;;;;;;;;26.28;11.83;100538.09;5119583;28;1042;-41
2021/03/08 12:45:20;;;;;;;;;;;;;;;26.52;11.65;100547.00;5119442;28;829;-37
2021/03/08 12:47:46;;;;;;;;;;;;;;;26.23;11.25;100547.72;5120025;28;790;-35
2021/03/08 12:50:11;;;;;;;;;;;;;;;26.23;12.14;100531.56;5119848;28;785;-37
2021/03/08 12:52:36;;;;;;;;;;;;;;;26.54;12.23;100552.22;5119053;28;1964;-39
2021/03/08 12:55:03;;;;;;;;;;;;;;;26.49;12.14;100528.47;5119786;28;751;-42
2021/03/08 12:57:28;;;;;;;;;;;;;;;26.70;13.07;100532.31;5119524;28;1005;-39
2021/03/08 12:59:53;;;;;;;;;;;;;;;26.91;13.95;100541.50;5119128;28;779;-38
2021/03/08 13:02:18;;;;;;;;;;;;;;;27.07;13.34;100529.72;5119525;28;910;-41
2021/03/08 13:04:44;;;;;;;;;;;;;;;27.14;13.91;100522.53;5119615;28;755;-42
2021/03/08 13:07:09;;;;;;;;;;;;;;;27.26;14.06;100533.69;5118814;28;811;-42
2021/03/08 13:09:53;;;;;;;;;;;;;;;27.38;14.13;100525.94;5122680;27;1398;-41